createdAt,value
2019-01-21T00:01:09.918Z,45.43
2019-01-21T00:03:39.277Z,47.23
2019-01-21T00:06:08.541Z,52.47
2019-01-21T00:08:37.842Z,52.83
2019-01-21T00:11:07.130Z,50.10
2019-01-21T00:13:36.386Z,45.33
2019-01-21T00:16:05.741Z,55.40
2019-01-21T00:18:34.982Z,42.03
2019-01-21T00:21:04.337Z,48.17
2019-01-21T00:23:33.617Z,43.67
2019-01-21T00:26:03.373Z,37.70
2019-01-21T00:28:32.706Z,47.13
2019-01-21T00:31:01.962Z,50.73
2019-01-21T00:33:31.245Z,31.47
2019-01-21T00:36:00.533Z,50.77
2019-01-21T00:38:29.798Z,47.27
2019-01-21T00:40:59.110Z,41.87
2019-01-21T00:43:28.409Z,45.67
2019-01-21T00:45:57.705Z,50.80
2019-01-21T00:48:26.925Z,50.60
2019-01-21T00:50:56.182Z,52.70
2019-01-21T00:53:25.549Z,51.27
2019-01-21T00:55:54.795Z,47.70
2019-01-21T00:58:24.037Z,54.77
2019-01-21T01:00:53.325Z,55.37
2019-01-21T01:03:22.589Z,58.43
2019-01-21T01:05:52.437Z,72.93
2019-01-21T01:08:21.757Z,53.83
2019-01-21T01:10:51.051Z,61.73
2019-01-21T01:13:20.289Z,50.43
2019-01-21T01:15:49.604Z,55.83
2019-01-21T01:18:18.862Z,54.83
2019-01-21T01:20:48.216Z,48.20
2019-01-21T01:23:17.457Z,47.60
2019-01-21T01:25:46.824Z,44.33
2019-01-21T01:28:16.108Z,43.47
2019-01-21T01:30:45.416Z,42.83
2019-01-21T01:33:14.728Z,41.63
2019-01-21T01:35:44.024Z,41.10
2019-01-21T01:38:13.308Z,37.00
2019-01-21T01:40:42.642Z,40.67
2019-01-21T01:43:13.316Z,37.37
2019-01-21T01:45:42.731Z,46.73
2019-01-21T01:48:12.040Z,43.83
2019-01-21T01:50:41.284Z,51.03
2019-01-21T01:53:10.564Z,51.20
2019-01-21T01:55:39.864Z,46.73
2019-01-21T01:58:09.527Z,47.53
2019-01-21T02:00:38.800Z,52.50
2019-01-21T02:03:08.072Z,50.47
2019-01-21T02:05:37.308Z,52.20
2019-01-21T02:08:06.616Z,50.47
2019-01-21T02:10:36.843Z,54.90
2019-01-21T02:13:06.264Z,49.80
2019-01-21T02:15:35.516Z,46.90
2019-01-21T02:18:05.944Z,49.20
2019-01-21T02:20:35.181Z,62.53
2019-01-21T02:23:05.741Z,45.40
2019-01-21T02:25:56.363Z,49.50
2019-01-21T02:28:51.275Z,48.73
2019-01-21T02:32:13.618Z,47.40
2019-01-21T02:35:08.575Z,45.27
2019-01-21T02:38:32.943Z,41.70
2019-01-21T02:41:38.995Z,47.30
2019-01-21T02:44:50.803Z,51.50
2019-01-21T02:47:48.307Z,42.37
2019-01-21T02:50:57.567Z,44.07
2019-01-21T02:54:13.491Z,44.40
2019-01-21T02:57:23.790Z,31.33
2019-01-21T03:00:30.631Z,35.07
2019-01-21T03:03:29.723Z,39.73
2019-01-21T03:06:17.579Z,32.43
2019-01-21T03:09:09.031Z,39.00
2019-01-21T03:12:04.436Z,34.90
2019-01-21T03:15:23.807Z,31.00
2019-01-21T03:18:35.712Z,31.97
2019-01-21T03:21:48.626Z,28.17
2019-01-21T03:25:07.572Z,39.47
2019-01-21T03:28:20.160Z,36.50
2019-01-21T03:31:38.188Z,40.03
2019-01-21T03:34:45.671Z,42.43
2019-01-21T03:37:55.439Z,44.63
2019-01-21T03:41:06.096Z,35.77
2019-01-21T03:44:34.851Z,36.90
2019-01-21T03:47:34.166Z,33.60
2019-01-21T03:50:44.695Z,31.50
2019-01-21T03:53:45.368Z,28.13
2019-01-21T03:56:42.478Z,30.63
2019-01-21T03:59:27.042Z,28.70
2019-01-21T04:02:40.562Z,31.97
2019-01-21T04:05:53.898Z,34.37
2019-01-21T04:09:04.150Z,36.23
2019-01-21T04:12:26.486Z,32.87
2019-01-21T04:15:33.706Z,30.37
2019-01-21T04:18:28.836Z,38.90
2019-01-21T04:21:48.447Z,39.93
2019-01-21T04:24:43.931Z,37.67
2019-01-21T04:28:18.534Z,39.27
2019-01-21T04:31:27.374Z,34.53
2019-01-21T04:34:46.806Z,40.27
2019-01-21T04:37:28.977Z,38.13
2019-01-21T04:40:08.151Z,37.97
2019-01-21T04:43:16.090Z,41.97
2019-01-21T04:46:19.091Z,31.70
2019-01-21T04:49:36.222Z,32.33
2019-01-21T04:53:01.949Z,32.07
2019-01-21T04:56:21.086Z,35.17
2019-01-21T04:59:26.037Z,39.43
2019-01-21T05:02:43.937Z,37.60
2019-01-21T05:05:50.321Z,37.67
2019-01-21T05:09:02.499Z,36.30
2019-01-21T05:12:27.817Z,35.40
2019-01-21T05:15:28.697Z,37.97
2019-01-21T05:18:28.805Z,37.03
2019-01-21T05:21:39.230Z,46.90
2019-01-21T05:24:47.782Z,38.90
2019-01-21T05:28:07.261Z,42.57
2019-01-21T05:31:12.161Z,32.73
2019-01-21T05:34:17.361Z,37.03
2019-01-21T05:37:30.981Z,41.63
2019-01-21T05:40:32.768Z,45.30
2019-01-21T05:43:38.085Z,38.43
2019-01-21T05:46:49.261Z,40.00
2019-01-21T05:49:54.269Z,40.83
2019-01-21T05:53:04.729Z,36.33
2019-01-21T05:56:17.561Z,34.33
2019-01-21T05:59:14.448Z,36.43
2019-01-21T06:02:27.660Z,40.73
2019-01-21T06:05:18.533Z,41.60
2019-01-21T06:08:23.296Z,38.10
2019-01-21T06:11:35.644Z,33.17
2019-01-21T06:14:32.812Z,30.27
2019-01-21T06:17:30.400Z,35.93
2019-01-21T06:20:40.434Z,30.67
2019-01-21T06:23:34.344Z,39.07
2019-01-21T06:26:44.806Z,33.17
2019-01-21T06:29:53.096Z,30.03
2019-01-21T06:33:09.295Z,34.20
2019-01-21T06:36:10.544Z,33.47
2019-01-21T06:39:10.404Z,32.07
2019-01-21T06:42:10.127Z,24.63
2019-01-21T06:45:05.220Z,26.13
2019-01-21T06:48:08.303Z,25.63
2019-01-21T06:51:32.296Z,30.90
2019-01-21T06:54:44.303Z,28.43
2019-01-21T06:57:43.819Z,27.50
2019-01-21T07:00:23.631Z,21.97
2019-01-21T07:03:21.649Z,31.13
2019-01-21T07:06:04.471Z,32.30
2019-01-21T07:09:28.672Z,31.80
2019-01-21T07:12:24.371Z,29.17
2019-01-21T07:15:40.648Z,25.53
2019-01-21T07:18:21.575Z,19.70
2019-01-21T07:21:41.326Z,23.20
2019-01-21T07:24:40.658Z,24.73
2019-01-21T07:27:29.647Z,30.10
2019-01-21T07:30:43.247Z,34.93
2019-01-21T07:33:42.522Z,35.40
2019-01-21T07:36:40.351Z,26.97
2019-01-21T07:39:52.886Z,36.67
2019-01-21T07:43:09.550Z,35.77
2019-01-21T07:46:16.306Z,42.93
2019-01-21T07:49:31.410Z,30.67
2019-01-21T07:53:12.467Z,40.97
2019-01-21T07:56:00.201Z,38.00
2019-01-21T07:59:06.710Z,26.27
2019-01-21T08:01:57.375Z,34.97
2019-01-21T08:05:26.254Z,34.83
2019-01-21T08:08:39.658Z,40.77
2019-01-21T08:11:32.222Z,35.03
2019-01-21T08:14:20.034Z,30.43
2019-01-21T08:17:25.006Z,37.40
2019-01-21T08:20:37.490Z,50.40
2019-01-21T08:23:48.894Z,44.47
2019-01-21T08:26:35.518Z,50.33
2019-01-21T08:29:45.049Z,36.90
2019-01-21T08:32:54.249Z,47.20
2019-01-21T08:35:46.526Z,46.80
2019-01-21T08:39:08.834Z,37.50
2019-01-21T08:42:10.665Z,46.03
2019-01-21T08:45:12.489Z,42.57
2019-01-21T08:48:10.585Z,45.83
2019-01-21T08:51:07.941Z,36.60
2019-01-21T08:54:14.127Z,37.33
2019-01-21T08:57:20.365Z,59.53
2019-01-21T09:00:10.953Z,63.13
2019-01-21T09:03:19.270Z,39.63
2019-01-21T09:06:19.677Z,40.73
2019-01-21T09:09:13.656Z,35.00
2019-01-21T09:12:14.228Z,30.90
2019-01-21T09:15:12.896Z,46.43
2019-01-21T09:18:26.687Z,27.53
2019-01-21T09:21:52.245Z,47.47
2019-01-21T09:24:53.688Z,40.73
2019-01-21T09:28:13.240Z,35.60
2019-01-21T09:31:09.300Z,23.37
2019-01-21T09:34:17.396Z,28.33
2019-01-21T09:37:39.608Z,46.13
2019-01-21T09:40:52.293Z,29.17
2019-01-21T09:43:45.707Z,36.60
2019-01-21T09:46:51.096Z,41.80
2019-01-21T09:49:18.796Z,30.40
2019-01-21T09:51:54.806Z,32.03
2019-01-21T09:54:24.686Z,39.63
2019-01-21T09:57:00.092Z,39.57
2019-01-21T09:59:30.852Z,33.23
2019-01-21T10:02:03.695Z,41.53
2019-01-21T10:04:44.892Z,33.83
2019-01-21T10:07:41.520Z,42.97
2019-01-21T10:10:47.916Z,30.10
2019-01-21T10:13:46.916Z,46.30
2019-01-21T10:16:25.440Z,39.37
2019-01-21T10:19:37.760Z,36.87
2019-01-21T10:22:29.828Z,34.30
2019-01-21T10:25:22.904Z,38.93
2019-01-21T10:28:16.397Z,46.40
2019-01-21T10:31:16.980Z,47.83
2019-01-21T10:34:40.296Z,44.93
2019-01-21T10:38:08.900Z,33.47
2019-01-21T10:40:53.623Z,38.60
2019-01-21T10:43:57.647Z,44.27
2019-01-21T10:47:16.725Z,32.00
2019-01-21T10:50:15.723Z,37.57
2019-01-21T10:53:19.739Z,40.20
2019-01-21T10:56:17.271Z,49.00
2019-01-21T10:59:26.647Z,42.87
2019-01-21T11:02:55.235Z,42.53
2019-01-21T11:05:54.903Z,41.80
2019-01-21T11:09:01.211Z,42.30
2019-01-21T11:12:00.675Z,50.17
2019-01-21T11:14:54.080Z,52.63
2019-01-21T11:17:37.391Z,33.23
2019-01-21T11:20:47.011Z,45.07
2019-01-21T11:23:45.560Z,40.53
2019-01-21T11:26:40.043Z,52.27
2019-01-21T11:29:50.251Z,68.63
2019-01-21T11:33:02.535Z,51.97
2019-01-21T11:36:08.746Z,54.47
2019-01-21T11:39:20.907Z,42.03
2019-01-21T11:42:27.935Z,49.10
2019-01-21T11:45:38.035Z,51.77
2019-01-21T11:48:41.410Z,37.33
2019-01-21T11:51:47.608Z,78.80
2019-01-21T11:54:43.314Z,124.20
2019-01-21T11:57:48.903Z,47.47
2019-01-21T12:00:43.385Z,46.47
2019-01-21T12:03:26.414Z,46.83
2019-01-21T12:06:07.690Z,51.13
2019-01-21T12:09:10.639Z,40.77
2019-01-21T12:12:15.890Z,52.10
2019-01-21T12:15:35.630Z,50.03
2019-01-21T12:18:57.882Z,52.30
2019-01-21T12:22:16.950Z,49.03
2019-01-21T12:24:55.910Z,45.43
2019-01-21T12:28:20.842Z,40.80
2019-01-21T12:31:00.330Z,40.37
2019-01-21T12:33:54.486Z,82.10
2019-01-21T12:36:37.825Z,45.87
2019-01-21T12:39:43.445Z,55.53
2019-01-21T12:42:35.382Z,61.30
2019-01-21T12:45:41.847Z,52.17
2019-01-21T12:48:23.609Z,44.17
2019-01-21T12:51:19.864Z,44.93
2019-01-21T12:54:27.777Z,46.10
2019-01-21T12:57:11.842Z,43.10
2019-01-21T13:00:06.815Z,41.77
2019-01-21T13:03:12.578Z,40.63
2019-01-21T13:06:16.769Z,45.83
2019-01-21T13:09:08.341Z,45.73
2019-01-21T13:12:10.749Z,50.00
2019-01-21T13:15:19.760Z,55.30
2019-01-21T13:18:30.835Z,60.67
2019-01-21T13:21:47.065Z,109.07
2019-01-21T13:24:58.887Z,53.27
2019-01-21T13:28:06.116Z,68.60
2019-01-21T13:31:05.625Z,49.47
2019-01-21T13:34:10.139Z,51.07
2019-01-21T13:37:10.324Z,47.30
2019-01-21T13:40:24.168Z,58.60
2019-01-21T13:43:21.956Z,46.60
2019-01-21T13:46:25.242Z,45.53
2019-01-21T13:49:19.280Z,46.67
2019-01-21T13:52:23.832Z,54.50
2019-01-21T13:55:14.272Z,40.10
2019-01-21T13:58:54.900Z,60.13
2019-01-21T14:01:49.274Z,57.53
2019-01-21T14:04:47.568Z,64.73
2019-01-21T14:08:16.060Z,59.57
2019-01-21T14:11:00.928Z,49.90
2019-01-21T14:14:07.098Z,99.17
2019-01-21T14:17:16.664Z,61.57
2019-01-21T14:19:58.632Z,59.00
2019-01-21T14:23:03.008Z,61.87
2019-01-21T14:26:28.219Z,81.17
2019-01-21T14:29:16.044Z,83.27
2019-01-21T14:32:25.215Z,69.10
2019-01-21T14:35:09.719Z,68.53
2019-01-21T14:38:15.342Z,74.93
2019-01-21T14:41:04.520Z,109.43
2019-01-21T14:44:19.935Z,76.47
2019-01-21T14:47:18.528Z,51.27
2019-01-21T14:50:50.551Z,82.30
2019-01-21T14:53:53.356Z,75.83
2019-01-21T14:57:09.835Z,59.80
2019-01-21T15:00:35.484Z,63.30
2019-01-21T15:03:35.498Z,79.37
2019-01-21T15:07:09.965Z,82.23
2019-01-21T15:10:41.518Z,97.17
2019-01-21T15:14:06.885Z,110.03
2019-01-21T15:17:08.442Z,93.70
2019-01-21T15:19:48.712Z,121.10
2019-01-21T15:22:50.359Z,132.33
2019-01-21T15:26:03.758Z,103.03
2019-01-21T15:29:04.634Z,78.07
2019-01-21T15:32:11.616Z,86.60
2019-01-21T15:35:21.860Z,77.33
2019-01-21T15:38:24.177Z,81.23
2019-01-21T15:41:52.513Z,68.57
2019-01-21T15:44:58.601Z,83.50
2019-01-21T15:48:02.349Z,71.63
2019-01-21T15:50:51.638Z,94.83
2019-01-21T15:53:52.490Z,84.57
2019-01-21T15:56:44.086Z,77.97
2019-01-21T15:59:22.426Z,80.77
2019-01-21T16:01:57.658Z,88.07
2019-01-21T16:05:11.430Z,109.97
2019-01-21T16:08:14.418Z,95.17
2019-01-21T16:11:19.993Z,72.53
2019-01-21T16:13:57.018Z,88.33
2019-01-21T16:16:47.622Z,79.10
2019-01-21T16:19:49.434Z,79.90
2019-01-21T16:23:08.418Z,79.90
2019-01-21T16:25:43.018Z,80.60
2019-01-21T16:28:40.468Z,75.00
2019-01-21T16:31:37.034Z,74.53
2019-01-21T16:34:44.611Z,74.13
2019-01-21T16:38:05.846Z,63.80
2019-01-21T16:41:02.537Z,83.37
2019-01-21T16:43:31.834Z,78.10
2019-01-21T16:46:01.128Z,91.50
2019-01-21T16:48:30.442Z,65.00
2019-01-21T16:50:59.742Z,61.40
2019-01-21T16:53:29.114Z,69.80
2019-01-21T16:55:58.477Z,61.33
2019-01-21T16:58:27.717Z,66.97
2019-01-21T17:00:56.977Z,66.47
2019-01-21T17:03:26.357Z,56.50
2019-01-21T17:05:55.606Z,62.20
2019-01-21T17:08:24.905Z,74.77
2019-01-21T17:10:54.261Z,114.30
2019-01-21T17:13:23.522Z,116.93
2019-01-21T17:15:52.785Z,61.27
2019-01-21T17:18:22.197Z,74.40
2019-01-21T17:20:51.441Z,69.20
2019-01-21T17:23:20.738Z,69.30
2019-01-21T17:25:50.024Z,85.37
2019-01-21T17:28:19.270Z,68.37
2019-01-21T17:30:48.545Z,79.67
2019-01-21T17:33:17.793Z,82.50
2019-01-21T17:35:47.106Z,70.77
2019-01-21T17:38:16.733Z,68.43
2019-01-21T17:40:46.330Z,88.40
2019-01-21T17:43:15.581Z,75.90
2019-01-21T17:45:45.257Z,78.13
2019-01-21T17:48:14.588Z,84.07
2019-01-21T17:50:43.929Z,89.57
2019-01-21T17:53:14.070Z,126.07
2019-01-21T17:55:43.354Z,94.33
2019-01-21T17:58:12.597Z,96.30
2019-01-21T18:00:41.957Z,80.77
2019-01-21T18:03:11.279Z,88.70
2019-01-21T18:05:40.585Z,96.43
2019-01-21T18:08:09.855Z,112.43
2019-01-21T18:10:39.177Z,87.90
2019-01-21T18:13:08.469Z,83.27
2019-01-21T18:15:37.749Z,76.87
2019-01-21T18:18:07.169Z,81.40
2019-01-21T18:20:36.461Z,87.37
2019-01-21T18:23:06.071Z,87.50
2019-01-21T18:25:35.384Z,105.40
2019-01-21T18:28:06.437Z,94.13
2019-01-21T18:30:35.689Z,80.50
2019-01-21T18:33:05.045Z,99.57
2019-01-21T18:35:34.333Z,87.83
2019-01-21T18:38:04.543Z,86.73
2019-01-21T18:40:33.801Z,95.93
2019-01-21T18:43:03.242Z,127.87
2019-01-21T18:45:32.512Z,119.57
2019-01-21T18:48:01.836Z,101.97
2019-01-21T18:50:31.095Z,83.60
2019-01-21T18:53:00.466Z,115.40
2019-01-21T18:55:29.784Z,102.80
2019-01-21T18:57:59.081Z,95.47
2019-01-21T19:00:28.343Z,105.00
2019-01-21T19:02:57.696Z,107.77
2019-01-21T19:05:26.956Z,125.70
2019-01-21T19:07:56.244Z,156.53
2019-01-21T19:10:25.584Z,95.03
2019-01-21T19:12:54.975Z,79.87
2019-01-21T19:15:29.892Z,89.27
2019-01-21T19:17:59.283Z,89.47
2019-01-21T19:20:28.560Z,105.60
2019-01-21T19:22:57.815Z,102.73
2019-01-21T19:25:27.165Z,95.03
2019-01-21T19:27:56.437Z,92.33
2019-01-21T19:30:27.243Z,80.70
2019-01-21T19:32:56.491Z,101.63
2019-01-21T19:35:34.647Z,108.57
2019-01-21T19:38:03.999Z,97.00
2019-01-21T19:40:33.265Z,101.57
2019-01-21T19:43:02.580Z,116.23
2019-01-21T19:45:31.832Z,101.30
2019-01-21T19:48:01.168Z,92.60
2019-01-21T19:50:30.448Z,89.63
2019-01-21T19:52:59.743Z,108.67
2019-01-21T19:55:37.467Z,96.90
2019-01-21T19:58:07.595Z,94.23
2019-01-21T20:00:37.175Z,102.73
2019-01-21T20:03:06.423Z,155.97
2019-01-21T20:05:36.331Z,104.23
2019-01-21T20:08:06.167Z,101.63
2019-01-21T20:10:35.531Z,103.07
2019-01-21T20:13:05.234Z,93.47
2019-01-21T20:15:34.518Z,93.70
2019-01-21T20:18:04.699Z,83.67
2019-01-21T20:20:36.507Z,81.07
2019-01-21T20:23:05.799Z,83.57
2019-01-21T20:25:35.194Z,91.10
2019-01-21T20:28:04.514Z,78.50
2019-01-21T20:30:33.814Z,87.03
2019-01-21T20:33:03.103Z,89.13
2019-01-21T20:35:32.419Z,85.43
2019-01-21T20:38:01.717Z,118.30
2019-01-21T20:40:30.972Z,93.20
2019-01-21T20:43:00.378Z,107.60
2019-01-21T20:45:29.649Z,104.37
2019-01-21T20:47:58.962Z,83.87
2019-01-21T20:50:29.627Z,95.17
2019-01-21T20:52:59.036Z,104.20
2019-01-21T20:55:28.687Z,118.17
2019-01-21T20:57:57.967Z,118.50
2019-01-21T21:00:28.693Z,132.70
2019-01-21T21:03:01.964Z,111.53
2019-01-21T21:05:31.431Z,119.47
2019-01-21T21:08:00.927Z,224.33
2019-01-21T21:10:30.547Z,144.50
2019-01-21T21:13:00.207Z,115.57
2019-01-21T21:15:31.781Z,124.40
2019-01-21T21:18:01.451Z,132.37
2019-01-21T21:20:31.074Z,112.97
2019-01-21T21:23:00.670Z,107.10
2019-01-21T21:25:30.267Z,150.43
2019-01-21T21:27:59.706Z,117.53
2019-01-21T21:30:31.470Z,101.13
2019-01-21T21:33:00.900Z,109.10
2019-01-21T21:35:30.410Z,110.57
2019-01-21T21:37:59.819Z,99.40
2019-01-21T21:40:29.247Z,101.57
2019-01-21T21:42:58.707Z,85.93
2019-01-21T21:45:28.190Z,98.13
2019-01-21T21:48:01.003Z,97.40
2019-01-21T21:50:30.854Z,121.80
2019-01-21T21:53:00.422Z,125.27
2019-01-21T21:55:30.142Z,110.67
2019-01-21T21:57:59.550Z,111.53
2019-01-21T22:00:29.665Z,122.00
2019-01-21T22:02:59.091Z,95.73
2019-01-21T22:05:28.497Z,105.03
2019-01-21T22:07:57.946Z,98.00
2019-01-21T22:10:28.974Z,90.33
2019-01-21T22:12:58.440Z,100.53
2019-01-21T22:15:28.001Z,101.93
2019-01-21T22:17:57.445Z,134.03
2019-01-21T22:20:26.877Z,151.43
2019-01-21T22:22:56.363Z,112.73
2019-01-21T22:25:25.894Z,158.03
2019-01-21T22:27:55.445Z,149.80
2019-01-21T22:30:27.201Z,137.67
2019-01-21T22:32:56.506Z,142.60
2019-01-21T22:35:25.853Z,211.50
2019-01-21T22:37:55.213Z,176.97
2019-01-21T22:40:24.805Z,168.80
2019-01-21T22:42:54.088Z,151.63
2019-01-21T22:45:23.589Z,105.30
2019-01-21T22:47:52.878Z,110.20
2019-01-21T22:50:22.453Z,116.93
2019-01-21T22:52:51.733Z,125.13
2019-01-21T22:55:21.131Z,138.10
2019-01-21T22:57:50.441Z,124.20
2019-01-21T23:00:42.199Z,105.17
2019-01-21T23:03:11.765Z,121.27
2019-01-21T23:05:41.072Z,119.80
2019-01-21T23:08:10.333Z,152.30
2019-01-21T23:10:39.809Z,149.77
2019-01-21T23:13:09.101Z,184.37
2019-01-21T23:15:38.405Z,162.57
2019-01-21T23:18:07.813Z,178.93
2019-01-21T23:20:37.089Z,142.47
2019-01-21T23:23:06.842Z,152.53
2019-01-21T23:25:36.099Z,143.00
2019-01-21T23:28:05.609Z,133.40
2019-01-21T23:30:34.852Z,164.67
2019-01-21T23:33:04.112Z,129.90
2019-01-21T23:35:33.477Z,123.60
2019-01-21T23:38:02.859Z,134.50
2019-01-21T23:40:32.180Z,113.30
2019-01-21T23:43:01.536Z,118.33
2019-01-21T23:45:30.840Z,120.73
2019-01-21T23:48:00.136Z,124.87
2019-01-21T23:50:29.484Z,147.50
2019-01-21T23:52:58.760Z,131.67
2019-01-21T23:55:28.017Z,141.00
2019-01-21T23:57:57.321Z,117.03
